createdAt,value
2015-12-17T00:00:47.843Z,9.2
2015-12-17T00:01:47.799Z,9.2
2015-12-17T00:02:47.740Z,9.2
2015-12-17T00:03:47.695Z,9.2
2015-12-17T00:04:47.636Z,9.2
2015-12-17T00:05:47.592Z,9.2
2015-12-17T00:06:47.531Z,9.2
2015-12-17T00:07:47.472Z,9.1
2015-12-17T00:08:47.427Z,9.2
2015-12-17T00:09:47.400Z,9.1
2015-12-17T00:10:47.323Z,9.1
2015-12-17T00:11:47.264Z,9.2
2015-12-17T00:12:47.220Z,9.2
2015-12-17T00:13:47.175Z,9.2
2015-12-17T00:14:47.113Z,9.2
2015-12-17T00:15:47.053Z,9.2
2015-12-17T00:16:47.009Z,9.2
2015-12-17T00:17:46.964Z,9.2
2015-12-17T00:18:46.905Z,9.2
2015-12-17T00:19:46.844Z,9.2
2015-12-17T00:20:46.801Z,9.2
2015-12-17T00:21:46.741Z,9.2
2015-12-17T00:22:46.697Z,9.2
2015-12-17T00:23:46.637Z,9.2
2015-12-17T00:24:46.593Z,9.2
2015-12-17T00:25:46.533Z,9.2
2015-12-17T00:26:46.489Z,9.2
2015-12-17T00:27:46.430Z,9.2
2015-12-17T00:28:46.385Z,9.2
2015-12-17T00:29:46.326Z,9.2
2015-12-17T00:30:46.283Z,9.2
2015-12-17T00:31:46.223Z,9.2
2015-12-17T00:32:46.175Z,9.2
2015-12-17T00:33:46.116Z,9.2
2015-12-17T00:34:46.056Z,9.2
2015-12-17T00:35:46.012Z,9.2
2015-12-17T00:36:45.952Z,9.2
2015-12-17T00:37:45.908Z,9.2
2015-12-17T00:38:45.863Z,9.2
2015-12-17T00:39:45.804Z,9.2
2015-12-17T00:40:45.744Z,9.2
2015-12-17T00:41:45.716Z,9.2
2015-12-17T00:42:45.641Z,9.2
2015-12-17T00:43:45.596Z,9.2
2015-12-17T00:44:45.537Z,9.2
2015-12-17T00:45:45.492Z,9.2
2015-12-17T00:46:45.432Z,9.2
2015-12-17T00:47:45.388Z,9.2
2015-12-17T00:48:45.329Z,9.2
2015-12-17T00:49:45.285Z,9.2
2015-12-17T00:50:45.225Z,9.2
2015-12-17T00:51:45.181Z,9.1
2015-12-17T00:52:45.121Z,9.2
2015-12-17T00:53:45.077Z,9.2
2015-12-17T00:54:45.017Z,9.2
2015-12-17T00:55:44.973Z,9.2
2015-12-17T00:56:44.912Z,9.2
2015-12-17T00:57:44.869Z,9.2
2015-12-17T00:58:44.809Z,9.2
2015-12-17T00:59:44.765Z,9.2
2015-12-17T01:00:44.705Z,9.2
2015-12-17T01:01:44.661Z,9.2
2015-12-17T01:02:44.601Z,9.2
2015-12-17T01:03:44.541Z,9.2
2015-12-17T01:04:44.498Z,9.2
2015-12-17T01:05:44.454Z,9.1
2015-12-17T01:06:44.393Z,9
2015-12-17T01:07:44.334Z,9.1
2015-12-17T01:08:44.289Z,9
2015-12-17T01:09:44.230Z,9
2015-12-17T01:10:44.186Z,9
2015-12-17T01:11:44.142Z,9
2015-12-17T01:12:44.081Z,9
2015-12-17T01:13:44.022Z,9
2015-12-17T01:14:43.977Z,9
2015-12-17T01:15:43.918Z,9
2015-12-17T01:16:43.858Z,8.9
2015-12-17T01:17:43.814Z,9
2015-12-17T01:18:43.769Z,9
2015-12-17T01:19:43.710Z,9
2015-12-17T01:20:43.666Z,9
2015-12-17T01:21:43.603Z,9
2015-12-17T01:22:43.544Z,9
2015-12-17T01:23:43.500Z,9
2015-12-17T01:24:43.439Z,9
2015-12-17T01:25:43.396Z,9.1
2015-12-17T01:26:43.336Z,9.1
2015-12-17T01:27:43.292Z,9.2
2015-12-17T01:28:43.247Z,9.2
2015-12-17T01:29:43.188Z,9.2
2015-12-17T01:30:43.127Z,9.3
2015-12-17T01:31:43.083Z,9.2
2015-12-17T01:32:43.024Z,9.3
2015-12-17T01:33:42.980Z,9.3
2015-12-17T01:34:42.921Z,9.3
2015-12-17T01:35:42.876Z,9.3
2015-12-17T01:36:42.816Z,9.3
2015-12-17T01:37:42.772Z,9.4
2015-12-17T01:38:42.727Z,9.4
2015-12-17T01:39:42.668Z,9.4
2015-12-17T01:40:42.608Z,9.4
2015-12-17T01:41:42.564Z,9.4
2015-12-17T01:42:42.504Z,9.4
2015-12-17T01:43:42.461Z,9.4
2015-12-17T01:44:42.401Z,9.4
2015-12-17T01:45:42.357Z,9.4
2015-12-17T01:46:42.297Z,9.4
2015-12-17T01:47:42.252Z,9.5
2015-12-17T01:48:42.193Z,9.4
2015-12-17T01:49:42.149Z,9.4
2015-12-17T01:50:42.090Z,9.4
2015-12-17T01:51:42.045Z,9.5
2015-12-17T01:52:41.985Z,9.5
2015-12-17T01:53:41.941Z,9.5
2015-12-17T01:54:41.882Z,9.5
2015-12-17T01:55:41.837Z,9.5
2015-12-17T01:56:41.778Z,9.5
2015-12-17T01:57:41.734Z,9.5
2015-12-17T01:58:41.674Z,9.5
2015-12-17T01:59:41.630Z,9.5
2015-12-17T02:00:41.570Z,9.5
2015-12-17T02:01:41.507Z,9.5
2015-12-17T02:02:41.463Z,9.5
2015-12-17T02:03:41.404Z,9.6
2015-12-17T02:04:41.360Z,9.6
2015-12-17T02:05:41.315Z,9.6
2015-12-17T02:06:41.271Z,9.6
2015-12-17T02:07:41.211Z,9.6
2015-12-17T02:08:41.151Z,9.7
2015-12-17T02:09:41.092Z,9.7
2015-12-17T02:10:41.048Z,9.7
2015-12-17T02:11:40.987Z,9.7
2015-12-17T02:12:40.943Z,9.7
2015-12-17T02:13:40.885Z,9.7
2015-12-17T02:14:40.840Z,9.7
2015-12-17T02:15:40.781Z,9.7
2015-12-17T02:16:40.721Z,9.7
2015-12-17T02:17:40.677Z,9.6
2015-12-17T02:18:40.632Z,9.6
2015-12-17T02:19:40.573Z,9.6
2015-12-17T02:20:40.513Z,9.6
2015-12-17T02:21:40.468Z,9.6
2015-12-17T02:22:40.425Z,9.6
2015-12-17T02:23:40.365Z,9.6
2015-12-17T02:24:40.306Z,9.6
2015-12-17T02:25:40.261Z,9.6
2015-12-17T02:26:40.201Z,9.7
2015-12-17T02:27:40.157Z,9.7
2015-12-17T02:28:40.098Z,9.7
2015-12-17T02:29:40.054Z,9.7
2015-12-17T02:30:40.009Z,9.6
2015-12-17T02:31:39.949Z,9.6
2015-12-17T02:32:39.890Z,9.6
2015-12-17T02:33:39.845Z,9.6
2015-12-17T02:34:39.786Z,9.6
2015-12-17T02:35:39.742Z,9.6
2015-12-17T02:36:39.682Z,9.6
2015-12-17T02:37:39.638Z,9.6
2015-12-17T02:38:39.578Z,9.6
2015-12-17T02:39:39.534Z,9.6
2015-12-17T02:40:39.475Z,9.6
2015-12-17T02:41:39.431Z,9.6
2015-12-17T02:42:39.370Z,9.6
2015-12-17T02:43:39.308Z,9.6
2015-12-17T02:44:39.264Z,9.5
2015-12-17T02:45:39.220Z,9.5
2015-12-17T02:46:39.159Z,9.5
2015-12-17T02:47:39.116Z,9.5
2015-12-17T02:48:39.056Z,9.5
2015-12-17T02:49:39.012Z,9.5
2015-12-17T02:50:38.953Z,9.5
2015-12-17T02:51:38.908Z,9.5
2015-12-17T02:52:38.847Z,9.5
2015-12-17T02:53:38.804Z,9.5
2015-12-17T02:54:38.745Z,9.5
2015-12-17T02:55:38.700Z,9.5
2015-12-17T02:56:38.641Z,9.4
2015-12-17T02:57:38.597Z,9.4
2015-12-17T02:58:38.536Z,9.5
2015-12-17T02:59:38.477Z,9.4
2015-12-17T03:00:38.423Z,9.4
2015-12-17T03:01:38.367Z,9.4
2015-12-17T03:02:38.295Z,9.4
2015-12-17T03:03:38.224Z,9.4
2015-12-17T03:04:38.168Z,9.4
2015-12-17T03:05:38.104Z,9.3
2015-12-17T03:06:38.070Z,9.4
2015-12-17T03:07:37.991Z,9.4
2015-12-17T03:08:37.943Z,9.3
2015-12-17T03:09:37.879Z,9.4
2015-12-17T03:10:37.849Z,9.4
2015-12-17T03:11:37.787Z,9.4
2015-12-17T03:12:37.727Z,9.4
2015-12-17T03:13:37.665Z,9.4
2015-12-17T03:14:37.619Z,9.4
2015-12-17T03:15:37.560Z,9.4
2015-12-17T03:16:37.515Z,9.4
2015-12-17T03:17:37.454Z,9.4
2015-12-17T03:18:37.410Z,9.4
2015-12-17T03:19:37.350Z,9.4
2015-12-17T03:20:37.306Z,9.4
2015-12-17T03:21:37.244Z,9.4
2015-12-17T03:22:37.199Z,9.4
2015-12-17T03:23:37.138Z,9.4
2015-12-17T03:24:37.094Z,9.4
2015-12-17T03:25:37.065Z,9.4
2015-12-17T03:26:36.990Z,9.4
2015-12-17T03:27:36.929Z,9.5
2015-12-17T03:28:36.886Z,9.5
2015-12-17T03:29:36.842Z,9.5
2015-12-17T03:30:36.782Z,9.5
2015-12-17T03:31:36.722Z,9.5
2015-12-17T03:32:36.678Z,9.6
2015-12-17T03:33:36.633Z,9.6
2015-12-17T03:34:36.574Z,9.7
2015-12-17T03:35:36.514Z,9.7
2015-12-17T03:36:36.470Z,9.7
2015-12-17T03:37:36.411Z,9.7
2015-12-17T03:38:36.367Z,9.7
2015-12-17T03:39:36.307Z,9.8
2015-12-17T03:40:36.248Z,9.8
2015-12-17T03:41:36.203Z,9.8
2015-12-17T03:42:36.159Z,9.8
2015-12-17T03:43:36.099Z,9.9
2015-12-17T03:44:36.040Z,9.8
2015-12-17T03:45:35.995Z,9.9
2015-12-17T03:46:35.936Z,9.9
2015-12-17T03:47:35.891Z,9.9
2015-12-17T03:48:35.831Z,9.9
2015-12-17T03:49:35.787Z,10
2015-12-17T03:50:35.728Z,10
2015-12-17T03:51:35.684Z,9.9
2015-12-17T03:52:35.624Z,9.9
2015-12-17T03:53:35.580Z,9.9
2015-12-17T03:54:35.520Z,10
2015-12-17T03:55:35.475Z,10
2015-12-17T03:56:35.417Z,10
2015-12-17T03:57:35.372Z,9.9
2015-12-17T03:58:35.312Z,9.9
2015-12-17T03:59:35.268Z,10
2015-12-17T04:00:35.208Z,9.9
2015-12-17T04:01:35.164Z,9.9
2015-12-17T04:02:35.133Z,9.9
2015-12-17T04:03:35.073Z,9.9
2015-12-17T04:04:34.998Z,9.9
2015-12-17T04:05:34.953Z,9.9
2015-12-17T04:06:34.894Z,9.9
2015-12-17T04:07:34.850Z,9.9
2015-12-17T04:08:34.789Z,10
2015-12-17T04:09:34.747Z,10
2015-12-17T04:10:34.686Z,10
2015-12-17T04:11:34.642Z,10
2015-12-17T04:12:34.598Z,9.9
2015-12-17T04:13:34.539Z,9.9
2015-12-17T04:14:34.478Z,9.9
2015-12-17T04:15:34.434Z,9.9
2015-12-17T04:16:34.374Z,10
2015-12-17T04:17:34.331Z,10
2015-12-17T04:18:34.271Z,10
2015-12-17T04:19:34.227Z,10
2015-12-17T04:20:34.167Z,10
2015-12-17T04:21:34.138Z,10
2015-12-17T04:22:34.063Z,10
2015-12-17T04:23:34.019Z,10
2015-12-17T04:24:33.959Z,10
2015-12-17T04:25:33.915Z,10
2015-12-17T04:26:33.855Z,10
2015-12-17T04:27:33.811Z,10
2015-12-17T04:28:33.751Z,10
2015-12-17T04:29:33.692Z,10
2015-12-17T04:30:33.648Z,10
2015-12-17T04:31:33.588Z,10
2015-12-17T04:32:33.543Z,10
2015-12-17T04:33:33.484Z,10.1
2015-12-17T04:34:33.441Z,10.1
2015-12-17T04:35:33.380Z,10.1
2015-12-17T04:36:33.336Z,10.1
2015-12-17T04:37:33.277Z,10.1
2015-12-17T04:38:33.233Z,10.1
2015-12-17T04:39:33.173Z,10.1
2015-12-17T04:40:33.128Z,10.2
2015-12-17T04:41:33.066Z,10.2
2015-12-17T04:42:33.022Z,10.2
2015-12-17T04:43:32.962Z,10.2
2015-12-17T04:44:32.918Z,10.2
2015-12-17T04:45:32.858Z,10.2
2015-12-17T04:46:32.814Z,10.2
2015-12-17T04:47:32.755Z,10.2
2015-12-17T04:48:32.710Z,10.2
2015-12-17T04:49:32.650Z,10.2
2015-12-17T04:50:32.590Z,10.2
2015-12-17T04:51:32.563Z,10.2
2015-12-17T04:52:32.502Z,10.2
2015-12-17T04:53:32.443Z,10.1
2015-12-17T04:54:32.399Z,10.2
2015-12-17T04:55:32.354Z,10.2
2015-12-17T04:56:32.294Z,10.1
2015-12-17T04:57:32.235Z,10.1
2015-12-17T04:58:32.175Z,10.2
2015-12-17T04:59:32.131Z,10.2
2015-12-17T05:00:32.071Z,10.1
2015-12-17T05:01:32.027Z,10.1
2015-12-17T05:02:31.968Z,10.1
2015-12-17T05:03:31.924Z,10.1
2015-12-17T05:04:31.879Z,10.1
2015-12-17T05:05:31.835Z,10.1
2015-12-17T05:06:31.776Z,10.2
2015-12-17T05:07:31.715Z,10.2
2015-12-17T05:08:31.671Z,10.2
2015-12-17T05:09:31.612Z,10.2
2015-12-17T05:10:31.568Z,10.2
2015-12-17T05:11:31.507Z,10.2
2015-12-17T05:12:31.463Z,10.2
2015-12-17T05:13:31.451Z,10.2
2015-12-17T05:14:31.360Z,10.2
2015-12-17T05:15:31.300Z,10.2
2015-12-17T05:16:31.396Z,10.2
2015-12-17T05:17:31.196Z,10.2
2015-12-17T05:18:31.152Z,10.2
2015-12-17T05:19:31.092Z,10.2
2015-12-17T05:20:31.048Z,10.2
2015-12-17T05:21:30.988Z,10.2
2015-12-17T05:22:30.944Z,10.2
2015-12-17T05:23:30.884Z,10.2
2015-12-17T05:24:30.840Z,10.2
2015-12-17T05:25:30.796Z,10.2
2015-12-17T05:26:30.734Z,10.2
2015-12-17T05:27:30.689Z,10.2
2015-12-17T05:28:30.630Z,10.2
2015-12-17T05:29:30.586Z,10.2
2015-12-17T05:30:30.526Z,10.2
2015-12-17T05:31:30.481Z,10.2
2015-12-17T05:32:30.422Z,10.3
2015-12-17T05:33:30.378Z,10.2
2015-12-17T05:34:30.364Z,10.2
2015-12-17T05:35:30.273Z,10.2
2015-12-17T05:36:30.214Z,10.2
2015-12-17T05:37:30.170Z,10.2
2015-12-17T05:38:30.125Z,10.2
2015-12-17T05:39:30.067Z,10.2
2015-12-17T05:40:30.006Z,10.2
2015-12-17T05:41:29.961Z,10.2
2015-12-17T05:42:29.907Z,10.2
2015-12-17T05:43:30.180Z,10.3
2015-12-17T05:44:29.983Z,10.3
2015-12-17T05:45:31.756Z,10.3
2015-12-17T05:46:29.806Z,10.3
2015-12-17T05:47:29.653Z,10.4
2015-12-17T05:48:29.624Z,10.4
2015-12-17T05:49:29.549Z,10.4
2015-12-17T05:50:29.567Z,10.4
2015-12-17T05:51:29.538Z,10.5
2015-12-17T05:52:29.385Z,10.5
2015-12-17T05:53:29.341Z,10.5
2015-12-17T05:54:29.297Z,10.5
2015-12-17T05:55:29.237Z,10.5
2015-12-17T05:56:29.209Z,10.5
2015-12-17T05:57:29.133Z,10.4
2015-12-17T05:58:29.074Z,10.5
2015-12-17T05:59:29.029Z,10.5
2015-12-17T06:00:28.969Z,10.5
2015-12-17T06:01:28.925Z,10.4
2015-12-17T06:02:28.866Z,10.4
2015-12-17T06:03:28.822Z,10.4
2015-12-17T06:04:28.778Z,10.4
2015-12-17T06:05:28.719Z,10.4
2015-12-17T06:06:28.674Z,10.4
2015-12-17T06:07:28.614Z,10.4
2015-12-17T06:08:28.552Z,10.4
2015-12-17T06:09:28.508Z,10.3
2015-12-17T06:10:28.463Z,10.3
2015-12-17T06:11:28.404Z,10.4
2015-12-17T06:12:28.359Z,10.4
2015-12-17T06:13:28.299Z,10.3
2015-12-17T06:14:28.255Z,10.3
2015-12-17T06:15:28.195Z,10.3
2015-12-17T06:16:28.151Z,10.3
2015-12-17T06:17:28.092Z,10.3
2015-12-17T06:18:28.048Z,10.3
2015-12-17T06:19:27.988Z,10.3
2015-12-17T06:20:27.943Z,10.3
2015-12-17T06:21:27.884Z,10.3
2015-12-17T06:22:27.840Z,10.3
2015-12-17T06:23:27.779Z,10.3
2015-12-17T06:24:27.735Z,10.3
2015-12-17T06:25:27.692Z,10.3
2015-12-17T06:26:27.632Z,10.3
2015-12-17T06:27:27.573Z,10.3
2015-12-17T06:28:27.529Z,10.3
2015-12-17T06:29:27.484Z,10.3
2015-12-17T06:30:27.424Z,10.3
2015-12-17T06:31:27.380Z,10.3
2015-12-17T06:32:27.320Z,10.4
2015-12-17T06:33:27.276Z,10.4
2015-12-17T06:34:27.216Z,10.4
2015-12-17T06:35:27.172Z,10.4
2015-12-17T06:36:27.112Z,10.4
2015-12-17T06:37:27.053Z,10.4
2015-12-17T06:38:27.009Z,10.3
2015-12-17T06:39:26.964Z,10.4
2015-12-17T06:40:26.904Z,10.4
2015-12-17T06:41:26.845Z,10.4
2015-12-17T06:42:26.801Z,10.3
2015-12-17T06:43:26.741Z,10.3
2015-12-17T06:44:26.698Z,10.4
2015-12-17T06:45:26.638Z,10.4
2015-12-17T06:46:26.593Z,10.4
2015-12-17T06:47:26.533Z,10.4
2015-12-17T06:48:26.490Z,10.4
2015-12-17T06:49:26.445Z,10.4
2015-12-17T06:50:26.386Z,10.5
2015-12-17T06:51:26.326Z,10.5
2015-12-17T06:52:26.281Z,10.5
2015-12-17T06:53:26.222Z,10.5
2015-12-17T06:54:26.175Z,10.4
2015-12-17T06:55:26.115Z,10.5
2015-12-17T06:56:26.055Z,10.5
2015-12-17T06:57:26.028Z,10.5
2015-12-17T06:58:25.967Z,10.6
2015-12-17T06:59:25.908Z,10.5
2015-12-17T07:00:25.847Z,10.6
2015-12-17T07:01:25.803Z,10.6
2015-12-17T07:02:25.759Z,10.6
2015-12-17T07:03:25.700Z,10.6
2015-12-17T07:04:25.640Z,10.7
2015-12-17T07:05:25.596Z,10.7
2015-12-17T07:06:25.536Z,10.6
2015-12-17T07:07:25.491Z,10.6
2015-12-17T07:08:25.433Z,10.6
2015-12-17T07:09:25.372Z,10.6
2015-12-17T07:10:25.328Z,10.6
2015-12-17T07:11:25.284Z,10.6
2015-12-17T07:12:25.225Z,10.6
2015-12-17T07:13:25.164Z,10.6
2015-12-17T07:14:25.121Z,10.6
2015-12-17T07:15:25.061Z,10.6
2015-12-17T07:16:25.016Z,10.6
2015-12-17T07:17:24.957Z,10.6
2015-12-17T07:18:24.913Z,10.6
2015-12-17T07:19:24.853Z,10.6
2015-12-17T07:20:24.794Z,10.6
2015-12-17T07:21:24.750Z,10.6
2015-12-17T07:22:24.721Z,10.6
2015-12-17T07:23:24.645Z,10.7
2015-12-17T07:24:24.602Z,10.7
2015-12-17T07:25:24.542Z,10.7
2015-12-17T07:26:24.514Z,10.6
2015-12-17T07:27:24.454Z,10.6
2015-12-17T07:28:24.394Z,10.7
2015-12-17T07:29:24.334Z,10.7
2015-12-17T07:30:24.289Z,10.7
2015-12-17T07:31:24.230Z,10.7
2015-12-17T07:32:24.186Z,10.7
2015-12-17T07:33:24.124Z,10.7
2015-12-17T07:34:24.079Z,10.7
2015-12-17T07:35:24.019Z,10.7
2015-12-17T07:36:23.975Z,10.7
2015-12-17T07:37:23.915Z,10.8
2015-12-17T07:38:23.871Z,10.8
2015-12-17T07:39:23.811Z,10.8
2015-12-17T07:40:23.768Z,10.8
2015-12-17T07:41:23.708Z,10.8
2015-12-17T07:42:23.664Z,10.8
2015-12-17T07:43:23.604Z,10.8
2015-12-17T07:44:23.560Z,10.8
2015-12-17T07:45:23.500Z,10.8
2015-12-17T07:46:23.456Z,10.8
2015-12-17T07:47:23.396Z,10.8
2015-12-17T07:48:23.336Z,10.8
2015-12-17T07:49:23.292Z,10.8
2015-12-17T07:50:23.232Z,10.8
2015-12-17T07:51:23.188Z,10.8
2015-12-17T07:52:23.129Z,10.8
2015-12-17T07:53:23.085Z,10.8
2015-12-17T07:54:23.040Z,10.8
2015-12-17T07:55:22.980Z,10.8
2015-12-17T07:56:22.936Z,10.8
2015-12-17T07:57:22.876Z,10.8
2015-12-17T07:58:22.832Z,10.8
2015-12-17T07:59:22.773Z,10.8
2015-12-17T08:00:22.729Z,10.8
2015-12-17T08:01:22.668Z,10.8
2015-12-17T08:02:22.614Z,10.8
2015-12-17T08:03:22.570Z,10.8
2015-12-17T08:04:22.526Z,10.8
2015-12-17T08:05:22.465Z,10.8
2015-12-17T08:06:22.423Z,10.8
2015-12-17T08:07:22.363Z,10.8
2015-12-17T08:08:22.318Z,10.7
2015-12-17T08:09:22.258Z,10.7
2015-12-17T08:10:22.214Z,10.7
2015-12-17T08:11:22.154Z,10.7
2015-12-17T08:12:22.110Z,10.7
2015-12-17T08:13:22.051Z,10.7
2015-12-17T08:14:22.007Z,10.7
2015-12-17T08:15:21.947Z,10.7
2015-12-17T08:16:21.903Z,10.7
2015-12-17T08:17:21.856Z,10.6
2015-12-17T08:18:21.796Z,10.7
2015-12-17T08:19:21.752Z,10.6
2015-12-17T08:20:21.692Z,10.7
2015-12-17T08:21:21.647Z,10.7
2015-12-17T08:22:21.588Z,10.7
2015-12-17T08:23:21.544Z,10.7
2015-12-17T08:24:21.500Z,10.7
2015-12-17T08:25:21.439Z,10.7
2015-12-17T08:26:21.395Z,10.7
2015-12-17T08:27:21.337Z,10.7
2015-12-17T08:28:21.292Z,10.7
2015-12-17T08:29:21.233Z,10.7
2015-12-17T08:30:21.189Z,10.7
2015-12-17T08:31:21.128Z,10.8
2015-12-17T08:32:21.084Z,10.7
2015-12-17T08:33:21.040Z,10.7
2015-12-17T08:34:20.981Z,10.7
2015-12-17T08:35:20.936Z,10.7
2015-12-17T08:36:20.877Z,10.7
2015-12-17T08:37:20.833Z,10.7
2015-12-17T08:38:20.789Z,10.7
2015-12-17T08:39:20.728Z,10.7
2015-12-17T08:40:20.685Z,10.7
2015-12-17T08:41:20.625Z,10.7
2015-12-17T08:42:20.565Z,10.7
2015-12-17T08:43:20.522Z,10.7
2015-12-17T08:44:20.477Z,10.7
2015-12-17T08:45:20.434Z,10.8
2015-12-17T08:46:20.373Z,10.7
2015-12-17T08:47:20.314Z,10.7
2015-12-17T08:48:20.269Z,10.7
2015-12-17T08:49:20.209Z,10.7
2015-12-17T08:50:20.181Z,10.7
2015-12-17T08:51:20.122Z,10.8
2015-12-17T08:52:20.062Z,10.8
2015-12-17T08:53:20.017Z,10.8
2015-12-17T08:54:19.958Z,10.8
2015-12-17T08:55:19.911Z,10.8
2015-12-17T08:56:19.851Z,10.8
2015-12-17T08:57:19.807Z,10.8
2015-12-17T08:58:19.748Z,10.8
2015-12-17T08:59:19.703Z,10.8
2015-12-17T09:00:19.658Z,10.8
2015-12-17T09:01:19.599Z,10.8
2015-12-17T09:02:19.539Z,10.8
2015-12-17T09:03:19.495Z,10.8
2015-12-17T09:04:19.451Z,10.9
2015-12-17T09:05:19.392Z,10.9
2015-12-17T09:06:19.347Z,10.9
2015-12-17T09:07:19.288Z,10.9
2015-12-17T09:08:19.244Z,10.9
2015-12-17T09:09:19.184Z,11
2015-12-17T09:10:19.139Z,10.9
2015-12-17T09:11:19.080Z,10.9
2015-12-17T09:12:19.035Z,11
2015-12-17T09:13:18.991Z,11
2015-12-17T09:14:18.963Z,11
2015-12-17T09:15:18.888Z,11.1
2015-12-17T09:16:18.828Z,11
2015-12-17T09:17:18.783Z,11
2015-12-17T09:18:18.724Z,11.1
2015-12-17T09:19:18.680Z,11.1
2015-12-17T09:20:18.621Z,11.1
2015-12-17T09:21:18.577Z,11.1
2015-12-17T09:22:18.546Z,11.1
2015-12-17T09:23:18.471Z,11.1
2015-12-17T09:24:18.413Z,11.1
2015-12-17T09:25:18.368Z,11.1
2015-12-17T09:26:18.308Z,11.1
2015-12-17T09:27:18.265Z,11
2015-12-17T09:28:18.205Z,11.1
2015-12-17T09:29:18.160Z,11.1
2015-12-17T09:30:18.116Z,11.1
2015-12-17T09:31:18.057Z,11.1
2015-12-17T09:32:18.013Z,11.1
2015-12-17T09:33:17.952Z,11.1
2015-12-17T09:34:17.910Z,11.1
2015-12-17T09:35:17.848Z,11.1
2015-12-17T09:36:17.805Z,11.1
2015-12-17T09:37:17.760Z,11.1
2015-12-17T09:38:17.701Z,11.2
2015-12-17T09:39:17.641Z,11.2
2015-12-17T09:40:17.597Z,11.2
2015-12-17T09:41:17.535Z,11.2
2015-12-17T09:42:17.490Z,11.2
2015-12-17T09:43:17.431Z,11.2
2015-12-17T09:44:17.387Z,11.2
2015-12-17T09:45:17.326Z,11.2
2015-12-17T09:46:17.282Z,11.2
2015-12-17T09:47:17.238Z,11.2
2015-12-17T09:48:17.178Z,11.3
2015-12-17T09:49:17.119Z,11.3
2015-12-17T09:50:17.075Z,11.3
2015-12-17T09:51:17.031Z,11.3
2015-12-17T09:52:16.970Z,11.3
2015-12-17T09:53:16.911Z,11.3
2015-12-17T09:54:16.867Z,11.4
2015-12-17T09:55:16.807Z,11.3
2015-12-17T09:56:16.763Z,11.3
2015-12-17T09:57:16.703Z,11.3
2015-12-17T09:58:16.659Z,11.4
2015-12-17T09:59:16.615Z,11.4
2015-12-17T10:00:16.556Z,11.3
2015-12-17T10:01:16.526Z,11.4
2015-12-17T10:02:16.452Z,11.4
2015-12-17T10:03:16.407Z,11.4
2015-12-17T10:04:16.348Z,11.4
2015-12-17T10:05:16.304Z,11.4
2015-12-17T10:06:16.259Z,11.4
2015-12-17T10:07:16.200Z,11.4
2015-12-17T10:08:16.140Z,11.4
2015-12-17T10:09:16.095Z,11.4
2015-12-17T10:10:16.052Z,11.4
2015-12-17T10:11:16.008Z,11.4
2015-12-17T10:12:15.948Z,11.4
2015-12-17T10:13:15.889Z,11.4
2015-12-17T10:14:15.845Z,11.4
2015-12-17T10:15:15.800Z,11.4
2015-12-17T10:16:15.740Z,11.5
2015-12-17T10:17:15.680Z,11.4
2015-12-17T10:18:15.637Z,11.5
2015-12-17T10:19:15.577Z,11.5
2015-12-17T10:20:15.531Z,11.6
2015-12-17T10:21:15.470Z,11.6
2015-12-17T10:22:15.426Z,11.6
2015-12-17T10:23:15.366Z,11.6
2015-12-17T10:24:15.322Z,11.6
2015-12-17T10:25:15.278Z,11.6
2015-12-17T10:26:15.218Z,11.7
2015-12-17T10:27:15.158Z,11.7
2015-12-17T10:28:15.114Z,11.7
2015-12-17T10:29:15.070Z,11.6
2015-12-17T10:30:15.042Z,11.6
2015-12-17T10:31:14.966Z,11.6
2015-12-17T10:32:14.907Z,11.7
2015-12-17T10:33:14.862Z,11.7
2015-12-17T10:34:14.819Z,11.7
2015-12-17T10:35:14.759Z,11.8
2015-12-17T10:36:14.714Z,11.9
2015-12-17T10:37:14.655Z,11.9
2015-12-17T10:38:14.611Z,11.9
2015-12-17T10:39:14.551Z,11.9
2015-12-17T10:40:14.492Z,12
2015-12-17T10:41:14.447Z,12
2015-12-17T10:42:14.403Z,12.1
2015-12-17T10:43:14.344Z,12.1
2015-12-17T10:44:14.299Z,12.1
2015-12-17T10:45:14.239Z,12.2
2015-12-17T10:46:14.195Z,12.2
2015-12-17T10:47:14.136Z,12.2
2015-12-17T10:48:14.092Z,12.3
2015-12-17T10:49:14.031Z,12.2
2015-12-17T10:50:13.988Z,12.3
2015-12-17T10:51:13.928Z,12.3
2015-12-17T10:52:13.883Z,12.4
2015-12-17T10:53:13.824Z,12.4
2015-12-17T10:54:13.781Z,12.4
2015-12-17T10:55:13.720Z,12.4
2015-12-17T10:56:13.676Z,12.4
2015-12-17T10:57:13.632Z,12.4
2015-12-17T10:58:13.569Z,12.4
2015-12-17T10:59:13.525Z,12.5
2015-12-17T11:00:13.465Z,12.4
2015-12-17T11:01:13.421Z,12.4
2015-12-17T11:02:13.361Z,12.4
2015-12-17T11:03:13.317Z,12.5
2015-12-17T11:04:13.257Z,12.5
2015-12-17T11:05:13.213Z,13.3
2015-12-17T11:06:13.154Z,13.1
2015-12-17T11:07:13.110Z,13
2015-12-17T11:08:13.050Z,12.9
2015-12-17T11:09:13.005Z,13
2015-12-17T11:10:12.961Z,12.9
2015-12-17T11:11:12.902Z,12.9
2015-12-17T11:12:12.842Z,12.9
2015-12-17T11:13:12.799Z,12.9
2015-12-17T11:14:12.755Z,12.9
2015-12-17T11:15:12.725Z,12.8
2015-12-17T11:16:12.650Z,12.8
2015-12-17T11:17:12.590Z,12.9
2015-12-17T11:18:12.546Z,12.9
2015-12-17T11:19:12.502Z,12.9
2015-12-17T11:20:12.443Z,12.9
2015-12-17T11:21:12.383Z,12.9
2015-12-17T11:22:12.338Z,13
2015-12-17T11:23:12.294Z,12.9
2015-12-17T11:24:12.235Z,13
2015-12-17T11:25:12.191Z,13
2015-12-17T11:26:12.131Z,13
2015-12-17T11:27:12.087Z,13
2015-12-17T11:28:12.043Z,13
2015-12-17T11:29:11.982Z,12.9
2015-12-17T11:30:11.939Z,12.9
2015-12-17T11:31:11.879Z,12.8
2015-12-17T11:32:11.835Z,12.8
2015-12-17T11:33:11.775Z,12.8
2015-12-17T11:34:11.732Z,12.8
2015-12-17T11:35:11.687Z,12.9
2015-12-17T11:36:11.626Z,13
2015-12-17T11:37:11.583Z,13.2
2015-12-17T11:38:11.538Z,13.6
2015-12-17T11:39:11.479Z,14.1
2015-12-17T11:40:11.434Z,14.6
2015-12-17T11:41:11.390Z,16.1
2015-12-17T11:42:11.343Z,16.1
2015-12-17T11:43:11.299Z,17.3
2015-12-17T11:44:11.240Z,18.3
2015-12-17T11:45:11.196Z,19.5
2015-12-17T11:46:11.151Z,19.7
2015-12-17T11:47:11.108Z,19.8
2015-12-17T11:48:11.063Z,19.8
2015-12-17T11:49:11.020Z,19.3
2015-12-17T11:50:10.990Z,18.6
2015-12-17T11:51:10.932Z,18.2
2015-12-17T11:52:10.888Z,17.4
2015-12-17T11:53:10.843Z,16.6
2015-12-17T11:54:10.799Z,16.2
2015-12-17T11:55:10.754Z,15.7
2015-12-17T11:56:10.710Z,15.3
2015-12-17T11:57:10.651Z,15
2015-12-17T11:58:10.606Z,14.6
2015-12-17T11:59:10.562Z,14.3
2015-12-17T12:00:10.504Z,14.2
2015-12-17T12:01:10.458Z,14.1
2015-12-17T12:02:10.414Z,13.9
2015-12-17T12:03:10.354Z,13.9
2015-12-17T12:04:10.311Z,13.8
2015-12-17T12:05:10.267Z,13.8
2015-12-17T12:06:10.218Z,13.7
2015-12-17T12:07:10.146Z,13.7
2015-12-17T12:08:10.089Z,13.6
2015-12-17T12:09:10.018Z,13.5
2015-12-17T12:10:09.961Z,13.6
2015-12-17T12:11:09.893Z,13.5
2015-12-17T12:12:09.860Z,13.5
2015-12-17T12:13:09.796Z,13.4
2015-12-17T12:14:09.732Z,13.4
2015-12-17T12:15:09.683Z,13.4
2015-12-17T12:16:09.638Z,13.4
2015-12-17T12:17:09.575Z,13.3
2015-12-17T12:18:09.530Z,13.3
2015-12-17T12:19:09.469Z,13.3
2015-12-17T12:20:09.423Z,13.3
2015-12-17T12:21:09.379Z,13.3
2015-12-17T12:22:09.333Z,13.3
2015-12-17T12:23:09.274Z,13.3
2015-12-17T12:24:09.211Z,13.3
2015-12-17T12:25:09.166Z,13.3
2015-12-17T12:26:09.122Z,13.3
2015-12-17T12:27:09.062Z,13.3
2015-12-17T12:28:09.018Z,13.3
2015-12-17T12:29:08.972Z,13.3
2015-12-17T12:30:08.913Z,13.3
2015-12-17T12:31:08.868Z,13.3
2015-12-17T12:32:08.808Z,13.3
2015-12-17T12:33:08.780Z,13.3
2015-12-17T12:34:08.719Z,13.3
2015-12-17T12:35:08.676Z,13.4
2015-12-17T12:36:08.616Z,13.4
2015-12-17T12:37:08.572Z,13.3
2015-12-17T12:38:08.513Z,13.3
2015-12-17T12:39:08.468Z,13.3
2015-12-17T12:40:08.424Z,13.3
2015-12-17T12:41:08.364Z,13.3
2015-12-17T12:42:08.321Z,13.3
2015-12-17T12:43:08.276Z,13.3
2015-12-17T12:44:08.216Z,13.3
2015-12-17T12:45:08.171Z,13.2
2015-12-17T12:46:08.112Z,13.2
2015-12-17T12:47:08.068Z,13.3
2015-12-17T12:48:08.024Z,13.2
2015-12-17T12:49:07.980Z,13.2
2015-12-17T12:50:07.920Z,13.2
2015-12-17T12:51:07.860Z,13.2
2015-12-17T12:52:07.816Z,13.2
2015-12-17T12:53:07.772Z,13.2
2015-12-17T12:54:07.712Z,13.3
2015-12-17T12:55:07.668Z,13.3
2015-12-17T12:56:07.624Z,13.3
2015-12-17T12:57:07.565Z,13.3
2015-12-17T12:58:07.521Z,13.2
2015-12-17T12:59:07.476Z,13.2
2015-12-17T13:00:07.416Z,13.2
2015-12-17T13:01:07.365Z,13.2
2015-12-17T13:02:07.321Z,13.2
2015-12-17T13:03:07.276Z,13.1
2015-12-17T13:04:07.232Z,13.1
2015-12-17T13:05:07.173Z,13.1
2015-12-17T13:06:07.129Z,13.1
2015-12-17T13:07:07.069Z,13.1
2015-12-17T13:08:07.022Z,13.1
2015-12-17T13:09:06.978Z,13
2015-12-17T13:10:06.917Z,13
2015-12-17T13:11:06.889Z,13
2015-12-17T13:12:06.829Z,13
2015-12-17T13:13:06.769Z,13
2015-12-17T13:14:06.725Z,12.9
2015-12-17T13:15:06.681Z,13
2015-12-17T13:16:06.622Z,13
2015-12-17T13:17:06.578Z,13.1
2015-12-17T13:18:06.534Z,13.1
2015-12-17T13:19:06.474Z,13.1
2015-12-17T13:20:06.429Z,13
2015-12-17T13:21:06.370Z,13
2015-12-17T13:22:06.326Z,13
2015-12-17T13:23:06.281Z,13
2015-12-17T13:24:06.237Z,13.1
2015-12-17T13:25:06.178Z,13.1
2015-12-17T13:26:06.134Z,13.1
2015-12-17T13:27:06.073Z,13.1
2015-12-17T13:28:06.030Z,13.2
2015-12-17T13:29:05.986Z,13.1
2015-12-17T13:30:05.926Z,13.2
2015-12-17T13:31:05.882Z,13.2